Time;durP1;ratioP1;P1;durP2;ratioP2;P2;SDS_P1;SDS_P2;PMS_P1;PMS_P2;Temp;Humidity;BMP_temperature;BMP_pressure;BME280_temperature;BME280_humidity;BME280_pressure;Samples;Min_cycle;Max_cycle;Signal;HPM_P1;HPM_P2
2023/08/02 00:00:22;;;;;;;3.90;3.20;;;16.00;99.90;;;;;;5031490;28;20261;-71
2023/08/02 00:02:47;;;;;;;3.50;3.20;;;16.00;99.90;;;;;;5031204;28;20207;-70
2023/08/02 00:05:13;;;;;;;6.93;4.00;;;16.00;99.90;;;;;;5031476;28;20325;-71
2023/08/02 00:07:39;;;;;;;3.30;3.10;;;15.90;99.90;;;;;;5031083;28;20243;-71
2023/08/02 00:10:05;;;;;;;3.90;3.50;;;15.90;99.90;;;;;;5031398;28;20298;-70
2023/08/02 00:12:30;;;;;;;3.87;3.20;;;15.90;99.90;;;;;;5031215;28;20645;-70
2023/08/02 00:14:56;;;;;;;3.80;3.17;;;15.90;99.90;;;;;;5031136;28;20187;-70
2023/08/02 00:17:21;;;;;;;4.40;3.20;;;15.90;99.90;;;;;;5031646;28;20179;-70
2023/08/02 00:19:48;;;;;;;3.50;3.20;;;15.90;99.90;;;;;;5031333;28;20280;-70
2023/08/02 00:22:14;;;;;;;3.43;3.20;;;15.90;99.90;;;;;;5031077;28;20180;-70
2023/08/02 00:24:39;;;;;;;3.53;3.23;;;15.80;99.90;;;;;;5031489;28;20168;-70
2023/08/02 00:27:05;;;;;;;5.23;3.43;;;15.80;99.90;;;;;;5031729;28;20203;-70
2023/08/02 00:29:30;;;;;;;4.33;3.17;;;15.80;99.90;;;;;;5031022;28;20576;-70
2023/08/02 00:31:56;;;;;;;5.03;3.70;;;15.80;99.90;;;;;;5030613;28;20587;-70
2023/08/02 00:34:21;;;;;;;3.43;3.20;;;15.70;99.90;;;;;;5030111;28;20167;-70
2023/08/02 00:36:47;;;;;;;4.60;3.90;;;15.70;99.90;;;;;;5031174;28;20202;-70
2023/08/02 00:39:13;;;;;;;4.03;3.73;;;15.70;99.90;;;;;;5031290;28;20195;-70
2023/08/02 00:41:38;;;;;;;4.13;3.57;;;15.80;99.90;;;;;;5030738;28;20587;-70
2023/08/02 00:44:04;;;;;;;3.60;3.30;;;15.70;99.90;;;;;;5031284;28;20176;-70
2023/08/02 00:46:29;;;;;;;4.83;3.33;;;15.70;99.90;;;;;;5031211;28;20762;-70
2023/08/02 00:48:55;;;;;;;4.63;3.57;;;15.70;99.90;;;;;;5031065;28;20329;-70
2023/08/02 00:51:20;;;;;;;5.93;3.77;;;15.70;99.90;;;;;;5030564;28;20546;-70
2023/08/02 00:53:47;;;;;;;8.03;3.80;;;15.60;99.90;;;;;;5030753;28;20662;-70
2023/08/02 00:56:16;;;;;;;4.13;3.73;;;15.60;99.90;;;;;;5031263;28;20176;-70
2023/08/02 00:58:41;;;;;;;3.90;3.30;;;15.60;99.90;;;;;;5030954;28;20238;-70
2023/08/02 01:01:07;;;;;;;3.90;3.60;;;15.50;99.90;;;;;;5031077;28;20313;-70
2023/08/02 01:03:46;;;;;;;7.97;4.10;;;15.50;99.90;;;;;;5030110;28;20194;-70
2023/08/02 01:06:30;;;;;;;3.40;3.10;;;15.50;99.90;;;;;;5031471;28;20175;-70
2023/08/02 01:09:07;;;;;;;5.73;3.83;;;15.40;99.90;;;;;;5034553;28;20195;-70
2023/08/02 01:11:46;;;;;;;5.77;3.83;;;15.50;99.90;;;;;;5033950;28;20302;-70
2023/08/02 01:14:17;;;;;;;6.73;3.63;;;15.60;99.90;;;;;;5034659;28;20236;-70
2023/08/02 01:16:44;;;;;;;6.23;3.70;;;15.60;99.90;;;;;;5034790;28;20174;-70
2023/08/02 01:19:11;;;;;;;3.77;3.47;;;15.70;99.90;;;;;;5034708;28;20192;-70
2023/08/02 01:21:37;;;;;;;4.13;3.50;;;15.70;99.90;;;;;;5033760;28;20256;-71
2023/08/02 01:24:04;;;;;;;4.70;3.70;;;15.80;99.90;;;;;;5034439;28;20537;-70
2023/08/02 01:26:31;;;;;;;5.47;3.60;;;15.80;99.90;;;;;;5034382;28;20378;-70
2023/08/02 01:29:01;;;;;;;4.77;4.17;;;15.80;99.90;;;;;;5034090;28;20203;-70
2023/08/02 01:31:28;;;;;;;6.53;3.90;;;15.90;99.90;;;;;;5033708;28;20195;-70
2023/08/02 01:33:56;;;;;;;6.23;3.90;;;15.90;99.90;;;;;;5034282;28;20171;-70
2023/08/02 01:36:23;;;;;;;4.30;4.00;;;15.90;99.90;;;;;;5034268;28;20534;-70
2023/08/02 01:38:50;;;;;;;5.40;4.20;;;16.00;99.90;;;;;;5033936;28;20645;-70
2023/08/02 01:41:16;;;;;;;6.17;4.33;;;16.00;99.90;;;;;;5033507;28;20210;-70
2023/08/02 01:43:41;;;;;;;7.70;4.67;;;16.00;99.90;;;;;;5033988;28;20203;-70
2023/08/02 01:46:07;;;;;;;6.90;3.63;;;16.10;99.90;;;;;;5034165;28;20238;-70
2023/08/02 01:48:33;;;;;;;5.00;3.67;;;16.10;99.90;;;;;;5033642;28;20253;-70
2023/08/02 01:50:58;;;;;;;7.23;4.10;;;16.10;99.90;;;;;;5033818;28;20549;-71
2023/08/02 01:53:24;;;;;;;3.60;3.30;;;16.10;99.90;;;;;;5033681;28;20182;-71
2023/08/02 01:55:49;;;;;;;5.00;3.40;;;16.20;99.90;;;;;;5033758;28;20630;-71
2023/08/02 01:58:15;;;;;;;4.90;3.37;;;16.20;99.90;;;;;;5033568;28;20645;-71
2023/08/02 02:00:41;;;;;;;4.67;3.40;;;16.20;99.90;;;;;;5033603;28;20207;-70
2023/08/02 02:03:07;;;;;;;5.23;3.37;;;16.20;99.90;;;;;;5033355;28;20175;-70
2023/08/02 02:05:32;;;;;;;3.50;3.20;;;16.20;99.90;;;;;;5033580;28;20190;-70
2023/08/02 02:07:58;;;;;;;4.60;3.10;;;16.20;99.90;;;;;;5033371;28;20191;-70
2023/08/02 02:10:23;;;;;;;3.57;3.20;;;16.20;99.90;;;;;;5033534;28;20223;-71
2023/08/02 02:12:49;;;;;;;3.57;3.33;;;16.20;99.90;;;;;;5033472;28;20183;-71
2023/08/02 02:15:14;;;;;;;9.00;4.00;;;16.20;99.90;;;;;;5033665;28;20233;-72
2023/08/02 02:17:40;;;;;;;3.80;3.43;;;16.30;99.90;;;;;;5032540;28;20167;-71
2023/08/02 02:20:06;;;;;;;5.63;3.27;;;16.30;99.90;;;;;;5032770;28;20257;-70
2023/08/02 02:22:32;;;;;;;3.67;3.37;;;16.30;99.90;;;;;;5033047;28;20183;-71
2023/08/02 02:24:58;;;;;;;8.03;3.50;;;16.30;99.90;;;;;;5033288;28;20514;-70
2023/08/02 02:27:23;;;;;;;11.90;3.83;;;16.40;99.90;;;;;;5033367;28;20187;-71
2023/08/02 02:29:49;;;;;;;4.53;3.53;;;16.40;99.90;;;;;;5032410;28;20681;-72
2023/08/02 02:32:14;;;;;;;6.80;3.60;;;16.40;99.90;;;;;;5033086;28;20184;-72
2023/08/02 02:34:40;;;;;;;5.37;3.83;;;16.50;99.90;;;;;;5033053;28;20178;-70
2023/08/02 02:37:06;;;;;;;3.93;3.60;;;16.50;99.90;;;;;;5033140;28;20182;-71
2023/08/02 02:39:31;;;;;;;6.57;3.60;;;16.50;99.90;;;;;;5032553;28;20222;-70
2023/08/02 02:41:57;;;;;;;3.90;3.60;;;16.50;99.90;;;;;;5032656;28;20190;-70
2023/08/02 02:44:38;;;;;;;3.90;3.50;;;16.60;99.90;;;;;;5032956;28;20542;-70
2023/08/02 02:47:04;;;;;;;4.23;2.97;;;16.60;99.90;;;;;;5032824;28;20171;-69
2023/08/02 02:49:29;;;;;;;7.20;3.50;;;16.60;99.90;;;;;;5032850;28;20200;-71
2023/08/02 02:51:55;;;;;;;4.53;3.00;;;16.60;99.90;;;;;;5032386;28;20255;-70
2023/08/02 02:54:20;;;;;;;4.40;3.47;;;16.60;99.90;;;;;;5032781;28;20648;-70
2023/08/02 02:56:46;;;;;;;4.60;3.33;;;16.70;99.90;;;;;;5032373;28;20174;-70
2023/08/02 02:59:11;;;;;;;4.83;3.50;;;16.70;99.90;;;;;;5032675;28;20700;-71
2023/08/02 03:01:37;;;;;;;6.07;3.10;;;16.70;99.90;;;;;;5032218;28;20181;-70
2023/08/02 03:04:03;;;;;;;3.57;3.27;;;16.70;99.90;;;;;;5032564;28;20217;-70
2023/08/02 03:06:28;;;;;;;3.40;3.10;;;16.70;99.90;;;;;;5032367;28;20180;-70
2023/08/02 03:08:54;;;;;;;4.80;2.90;;;16.70;99.90;;;;;;5032154;28;20691;-71
2023/08/02 03:11:19;;;;;;;4.23;3.67;;;16.70;99.90;;;;;;5032440;28;20294;-71
2023/08/02 03:13:45;;;;;;;4.50;2.67;;;16.70;99.90;;;;;;5031931;28;20233;-71
2023/08/02 03:16:10;;;;;;;3.23;2.93;;;16.70;99.90;;;;;;5032320;28;20649;-70
2023/08/02 03:18:36;;;;;;;3.13;2.80;;;16.70;99.90;;;;;;5031702;28;20184;-70
2023/08/02 03:21:02;;;;;;;4.73;3.07;;;16.60;99.90;;;;;;5032266;28;20202;-70
2023/08/02 03:23:27;;;;;;;2.80;2.60;;;16.60;99.90;;;;;;5031857;28;20210;-69
2023/08/02 03:25:53;;;;;;;2.70;2.50;;;16.60;99.90;;;;;;5031999;28;20618;-71
2023/08/02 03:28:18;;;;;;;4.70;3.43;;;16.60;99.90;;;;;;5030721;28;20211;-71
2023/08/02 03:30:44;;;;;;;3.20;3.00;;;16.60;99.90;;;;;;5031806;28;20215;-70
2023/08/02 03:33:10;;;;;;;3.10;2.80;;;16.60;99.90;;;;;;5031810;28;20176;-71
2023/08/02 03:35:35;;;;;;;2.70;2.60;;;16.60;99.90;;;;;;5031922;28;20175;-71
2023/08/02 03:38:01;;;;;;;3.87;3.20;;;16.50;99.90;;;;;;5031475;28;20183;-71
2023/08/02 03:40:26;;;;;;;3.60;3.30;;;16.50;99.90;;;;;;5031943;28;20198;-72
2023/08/02 03:42:52;;;;;;;3.30;3.00;;;16.50;99.90;;;;;;5031513;28;20218;-71
2023/08/02 03:45:18;;;;;;;4.83;4.30;;;16.40;99.90;;;;;;5031972;28;20160;-71
2023/08/02 03:47:43;;;;;;;7.63;4.10;;;16.40;99.90;;;;;;5031176;28;20254;-71
2023/08/02 03:50:09;;;;;;;4.30;3.90;;;16.30;99.90;;;;;;5031743;28;20298;-71
2023/08/02 03:52:34;;;;;;;7.93;4.00;;;16.20;99.90;;;;;;5031410;28;20179;-71
2023/08/02 03:55:00;;;;;;;7.27;4.10;;;16.20;99.90;;;;;;5031789;28;20171;-70
2023/08/02 03:57:26;;;;;;;4.03;3.63;;;16.20;99.90;;;;;;5031485;28;20175;-71
2023/08/02 03:59:51;;;;;;;4.00;3.37;;;16.10;99.90;;;;;;5031409;28;20206;-70
2023/08/02 04:02:17;;;;;;;4.27;3.97;;;16.10;99.90;;;;;;5031080;28;20219;-70
2023/08/02 04:04:42;;;;;;;4.47;4.10;;;16.10;99.90;;;;;;5031488;28;20175;-70
2023/08/02 04:07:09;;;;;;;3.87;3.40;;;16.10;99.90;;;;;;5031417;28;20183;-72
2023/08/02 04:09:35;;;;;;;5.63;3.87;;;16.10;99.90;;;;;;5030060;28;20210;-72
2023/08/02 04:12:01;;;;;;;4.37;3.47;;;16.10;99.90;;;;;;5031277;28;20941;-71
2023/08/02 04:14:26;;;;;;;5.00;3.90;;;16.10;99.90;;;;;;5031612;28;20663;-71
2023/08/02 04:16:52;;;;;;;3.53;3.23;;;16.10;99.90;;;;;;5029809;28;20187;-71
2023/08/02 04:19:17;;;;;;;6.17;4.03;;;16.20;99.90;;;;;;5030965;28;20202;-72
2023/08/02 04:21:43;;;;;;;4.00;3.60;;;16.10;99.90;;;;;;5030705;28;20648;-72
2023/08/02 04:24:08;;;;;;;4.20;3.90;;;16.10;99.90;;;;;;5031447;28;20171;-71
2023/08/02 04:26:34;;;;;;;6.03;4.10;;;16.10;99.90;;;;;;5031079;28;20176;-72
2023/08/02 04:28:59;;;;;;;6.93;4.87;;;16.10;99.90;;;;;;5049544;22;20292;-87
2023/08/02 04:31:25;;;;;;;5.33;4.07;;;16.10;99.90;;;;;;5011341;28;20709;-88
2023/08/02 04:33:52;;;;;;;4.57;4.17;;;16.10;99.90;;;;;;5011121;28;20234;-88
2023/08/02 04:36:17;;;;;;;5.53;4.17;;;16.10;99.90;;;;;;5011402;28;20215;-87
2023/08/02 04:38:43;;;;;;;6.63;3.90;;;16.10;99.90;;;;;;5011533;28;20200;-88
2023/08/02 04:41:15;;;;;;;4.77;3.87;;;16.00;99.90;;;;;;5013375;28;20177;-88
2023/08/02 04:43:42;;;;;;;8.10;3.90;;;16.00;99.90;;;;;;5015549;28;20176;-88
2023/08/02 04:46:09;;;;;;;13.37;4.33;;;15.90;99.90;;;;;;5015328;28;20192;-88
2023/08/02 04:48:35;;;;;;;6.80;5.23;;;15.90;99.90;;;;;;5014819;28;20226;-88
2023/08/02 04:51:06;;;;;;;6.47;4.50;;;15.90;99.90;;;;;;5014816;28;20208;-89
2023/08/02 04:53:32;;;;;;;6.10;4.30;;;15.90;99.90;;;;;;5015238;28;20176;-88
2023/08/02 04:55:59;;;;;;;4.80;4.40;;;15.80;99.90;;;;;;5015151;28;20207;-88
2023/08/02 04:58:24;;;;;;;7.23;4.17;;;15.80;99.90;;;;;;5015716;28;20188;-88
2023/08/02 05:00:50;;;;;;;5.20;3.70;;;15.80;99.90;;;;;;5015545;28;20204;-87
2023/08/02 05:03:15;;;;;;;5.20;4.20;;;15.90;99.90;;;;;;5017955;28;20172;-88
2023/08/02 05:05:42;;;;;;;4.37;4.03;;;15.90;99.90;;;;;;5016306;28;20219;-88
2023/08/02 05:08:08;;;;;;;5.10;4.60;;;15.90;99.90;;;;;;5017735;28;20557;-88
2023/08/02 05:10:36;;;;;;;8.60;4.93;;;16.00;99.90;;;;;;5015886;28;20204;-88
2023/08/02 05:13:05;;;;;;;5.73;4.63;;;16.00;99.90;;;;;;5016802;28;20647;-87
2023/08/02 05:15:36;;;;;;;9.20;5.47;;;16.00;99.90;;;;;;5000360;28;20208;-88
2023/08/02 05:18:02;;;;;;;5.20;4.70;;;16.10;99.90;;;;;;5016319;28;20183;-86
2023/08/02 05:20:32;;;;;;;6.13;4.83;;;16.20;99.90;;;;;;5015824;28;20271;-88
2023/08/02 05:22:58;;;;;;;5.23;4.50;;;16.20;99.90;;;;;;5016808;28;20168;-88
2023/08/02 05:25:30;;;;;;;6.03;4.70;;;16.20;99.90;;;;;;5015162;28;20300;-87
2023/08/02 05:27:56;;;;;;;6.63;5.10;;;16.20;99.90;;;;;;5015242;28;20554;-88
2023/08/02 05:30:23;;;;;;;5.33;4.77;;;16.20;99.90;;;;;;5015121;28;20208;-87
2023/08/02 05:32:48;;;;;;;5.63;5.00;;;16.20;99.90;;;;;;5016000;28;20176;-87
2023/08/02 05:35:14;;;;;;;8.83;6.10;;;16.20;99.90;;;;;;5014446;28;20568;-88
2023/08/02 05:37:40;;;;;;;7.63;5.00;;;16.20;99.90;;;;;;5013901;28;20208;-88
2023/08/02 05:40:06;;;;;;;5.57;5.07;;;16.20;99.90;;;;;;5014569;28;20208;-90
2023/08/02 05:42:32;;;;;;;6.33;5.17;;;16.20;99.90;;;;;;5018207;28;20252;-87
2023/08/02 05:44:58;;;;;;;7.20;5.60;;;16.20;99.90;;;;;;5017405;28;20644;-87
2023/08/02 05:47:23;;;;;;;9.10;5.73;;;16.20;99.90;;;;;;5016873;28;20187;-90
2023/08/02 05:49:49;;;;;;;7.23;5.43;;;16.20;99.90;;;;;;5015236;28;20290;-88
2023/08/02 05:52:15;;;;;;;5.47;4.90;;;16.20;99.90;;;;;;5013902;28;20673;-89
2023/08/02 05:54:42;;;;;;;6.03;5.43;;;16.20;99.90;;;;;;5016053;28;20286;-89
2023/08/02 05:57:07;;;;;;;8.27;5.87;;;16.30;99.90;;;;;;5016587;28;20556;-88
2023/08/02 05:59:33;;;;;;;7.80;5.93;;;16.30;99.90;;;;;;5015253;28;20184;-88
2023/08/02 06:01:59;;;;;;;7.10;6.00;;;16.30;99.90;;;;;;5016354;28;20180;-88
2023/08/02 06:04:25;;;;;;;11.07;5.70;;;16.30;99.90;;;;;;5015355;28;20744;-88
2023/08/02 06:06:51;;;;;;;8.20;5.10;;;16.40;99.90;;;;;;5015676;28;20294;-88
2023/08/02 06:09:18;;;;;;;7.30;6.60;;;16.40;99.90;;;;;;5017666;28;20177;-88
2023/08/02 06:11:43;;;;;;;7.50;6.23;;;16.50;99.90;;;;;;5017656;28;20257;-88
2023/08/02 06:14:09;;;;;;;6.57;5.97;;;16.50;99.90;;;;;;5016711;28;20172;-88
2023/08/02 06:16:35;;;;;;;7.67;5.60;;;16.50;99.90;;;;;;5016884;28;20200;-88
2023/08/02 06:19:02;;;;;;;7.20;5.67;;;16.40;99.90;;;;;;5017498;28;20319;-91
2023/08/02 06:21:29;;;;;;;7.27;6.00;;;16.50;99.90;;;;;;5014726;28;20354;-90
2023/08/02 06:23:54;;;;;;;7.03;6.27;;;16.50;99.90;;;;;;5015910;28;20184;-90
2023/08/02 06:26:21;;;;;;;6.57;5.67;;;16.50;99.90;;;;;;5015716;28;20669;-89
2023/08/02 06:28:48;;;;;;;6.13;5.60;;;16.50;99.90;;;;;;5018252;28;20186;-89
2023/08/02 06:31:13;;;;;;;6.07;5.53;;;16.40;99.90;;;;;;5016753;28;20673;-90
2023/08/02 06:33:39;;;;;;;7.90;6.07;;;16.40;99.90;;;;;;5016876;28;20178;-89
2023/08/02 06:36:05;;;;;;;6.73;6.10;;;16.40;99.90;;;;;;5017214;28;20196;-89
2023/08/02 06:38:32;;;;;;;6.90;6.30;;;16.40;99.90;;;;;;5017510;28;20226;-89
2023/08/02 06:40:58;;;;;;;6.20;5.60;;;16.40;99.90;;;;;;5024784;28;20180;-88
2023/08/02 06:43:25;;;;;;;6.07;5.57;;;16.40;99.90;;;;;;5037821;28;20263;-90
2023/08/02 06:45:51;;;;;;;8.20;6.13;;;16.40;99.90;;;;;;5021192;28;20192;-92
2023/08/02 06:48:19;;;;;;;6.70;5.97;;;16.40;99.90;;;;;;5021813;28;20191;-90
2023/08/02 06:50:45;;;;;;;7.17;6.10;;;16.40;99.90;;;;;;5038060;28;20216;-91
2023/08/02 06:53:11;;;;;;;8.17;5.93;;;16.50;99.90;;;;;;5037924;28;20191;-89
2023/08/02 06:55:36;;;;;;;7.60;6.10;;;16.50;99.90;;;;;;5037842;28;20212;-92
2023/08/02 06:58:02;;;;;;;8.70;6.57;;;16.50;99.90;;;;;;5038763;28;20210;-91
2023/08/02 07:00:32;;;;;;;10.27;6.47;;;16.50;99.90;;;;;;5038863;28;20192;-91
2023/08/02 07:03:02;;;;;;;13.73;7.13;;;16.50;99.90;;;;;;5038292;28;20172;-92
2023/08/02 07:05:29;;;;;;;12.37;6.57;;;16.50;99.90;;;;;;5038346;28;20172;-92
2023/08/02 07:07:56;;;;;;;15.60;6.87;;;16.60;99.90;;;;;;5037553;28;20175;-90
2023/08/02 07:10:22;;;;;;;8.40;6.40;;;16.70;99.90;;;;;;5038371;28;20279;-89
2023/08/02 07:12:48;;;;;;;8.67;6.40;;;16.80;99.90;;;;;;5037558;28;20179;-90
2023/08/02 07:15:14;;;;;;;6.57;5.67;;;16.90;99.90;;;;;;5038409;28;20252;-89
2023/08/02 07:17:40;;;;;;;15.37;6.93;;;16.90;99.90;;;;;;5030861;28;20176;-89
2023/08/02 07:20:07;;;;;;;8.03;6.80;;;17.00;99.90;;;;;;5013325;28;20375;-89
2023/08/02 07:22:34;;;;;;;8.03;7.20;;;16.90;99.90;;;;;;5013965;28;20187;-89
2023/08/02 07:25:00;;;;;;;10.67;6.40;;;17.00;99.90;;;;;;5013870;28;20207;-89
2023/08/02 07:27:25;;;;;;;10.50;6.53;;;17.00;99.90;;;;;;5014174;28;20191;-90
2023/08/02 07:29:52;;;;;;;9.43;6.30;;;16.90;99.90;;;;;;5013237;28;20294;-90
2023/08/02 07:32:18;;;;;;;7.57;6.30;;;17.00;99.90;;;;;;4998214;28;20176;-90
2023/08/02 07:34:44;;;;;;;8.53;5.70;;;17.00;99.90;;;;;;5014102;28;20203;-89
2023/08/02 07:37:10;;;;;;;8.63;6.37;;;17.00;99.90;;;;;;5014810;28;20176;-90
2023/08/02 07:39:38;;;;;;;8.70;6.30;;;17.10;99.90;;;;;;5023263;28;20240;-90
2023/08/02 07:42:04;;;;;;;7.13;6.43;;;17.30;99.90;;;;;;5036434;28;20218;-90
2023/08/02 07:44:30;;;;;;;9.57;5.83;;;17.50;99.90;;;;;;5035587;28;20180;-92
2023/08/02 07:46:56;;;;;;;8.53;5.93;;;17.70;99.90;;;;;;5034675;28;20191;-91
2023/08/02 07:49:21;;;;;;;10.10;8.90;;;17.90;99.90;;;;;;5016179;28;20261;-87
2023/08/02 07:51:47;;;;;;;7.43;5.43;;;18.20;99.90;;;;;;5012389;28;20215;-90
2023/08/02 07:54:13;;;;;;;5.97;5.47;;;18.50;99.90;;;;;;5012727;28;20169;-91
2023/08/02 07:56:39;;;;;;;8.27;5.10;;;18.60;99.90;;;;;;5011630;28;20200;-90
2023/08/02 07:59:05;;;;;;;8.20;5.30;;;18.60;99.90;;;;;;4995783;28;20184;-91
2023/08/02 08:01:30;;;;;;;5.83;5.43;;;18.70;99.90;;;;;;5012100;28;20179;-88
2023/08/02 08:04:02;;;;;;;5.50;5.10;;;18.70;99.90;;;;;;5011801;28;20263;-93
2023/08/02 08:06:28;;;;;;;5.63;5.10;;;18.90;99.90;;;;;;5012100;28;20222;-90
2023/08/02 08:08:53;;;;;;;5.27;4.43;;;19.10;99.90;;;;;;5011371;28;20184;-90
2023/08/02 08:11:19;;;;;;;5.37;4.60;;;19.30;99.90;;;;;;5012256;28;20736;-91
2023/08/02 08:13:44;;;;;;;6.23;4.80;;;19.50;99.90;;;;;;5017873;28;20176;-90
2023/08/02 08:16:10;;;;;;;4.17;3.87;;;19.70;99.90;;;;;;5011593;28;20241;-89
2023/08/02 08:18:36;;;;;;;4.90;3.80;;;19.80;99.90;;;;;;5012298;28;20210;-91
2023/08/02 08:21:03;;;;;;;3.90;3.60;;;19.80;99.90;;;;;;5013388;28;20196;-90
2023/08/02 08:23:33;;;;;;;3.50;3.20;;;19.70;99.90;;;;;;5012888;28;20179;-89
2023/08/02 08:25:59;;;;;;;3.50;3.20;;;19.50;99.90;;;;;;5012861;28;20200;-91
2023/08/02 08:28:25;;;;;;;4.00;3.70;;;19.30;99.90;;;;;;5013005;28;20176;-92
2023/08/02 08:31:01;;;;;;;4.20;3.50;;;19.30;99.90;;;;;;5012136;28;20218;-90
2023/08/02 08:33:27;;;;;;;4.33;3.93;;;19.10;99.90;;;;;;5013628;28;20660;-91
2023/08/02 08:35:53;;;;;;;5.43;3.97;;;19.20;99.90;;;;;;5012524;28;20728;-90
2023/08/02 08:38:19;;;;;;;3.50;3.30;;;19.30;99.90;;;;;;5012155;28;20172;-90
2023/08/02 08:40:52;;;;;;;3.97;3.67;;;19.30;99.90;;;;;;5012463;28;20183;-90
2023/08/02 08:43:19;;;;;;;4.07;3.50;;;19.30;99.90;;;;;;5014917;28;20634;-88
2023/08/02 08:45:50;;;;;;;3.60;3.40;;;19.10;99.90;;;;;;5014280;28;20196;-93
2023/08/02 08:48:19;;;;;;;4.23;3.20;;;19.00;99.90;;;;;;5015360;28;20180;-93
2023/08/02 08:50:46;;;;;;;2.93;2.73;;;19.00;99.90;;;;;;5017345;28;20199;-90
2023/08/02 08:53:18;;;;;;;3.37;3.07;;;18.90;99.90;;;;;;5013819;28;20235;-91
2023/08/02 08:55:49;;;;;;;2.80;2.70;;;18.90;99.90;;;;;;5011765;28;20286;-90
2023/08/02 08:58:16;;;;;;;2.63;2.53;;;18.90;99.90;;;;;;5012629;28;20187;-90
2023/08/02 09:00:43;;;;;;;3.97;2.67;;;18.80;99.90;;;;;;5012450;28;20239;-90
2023/08/02 09:03:12;;;;;;;3.40;2.80;;;18.70;99.90;;;;;;5012118;28;20180;-90
2023/08/02 09:05:40;;;;;;;2.70;2.50;;;18.70;99.90;;;;;;5012860;28;20291;-90
2023/08/02 09:08:05;;;;;;;2.40;2.30;;;18.60;99.90;;;;;;5013048;28;20533;-90
2023/08/02 09:13:03;;;;;;;2.43;2.33;;;18.60;99.90;;;;;;5029735;28;20207;-74
2023/08/02 09:15:28;;;;;;;2.77;2.57;;;18.80;99.90;;;;;;5031561;28;20171;-73
2023/08/02 09:17:55;;;;;;;2.80;2.60;;;18.90;99.90;;;;;;5030925;28;20263;-72
2023/08/02 09:20:23;;;;;;;2.40;2.30;;;18.90;99.90;;;;;;5050429;28;20260;-71
2023/08/02 09:22:49;;;;;;;4.50;2.47;;;18.90;99.90;;;;;;5050830;28;20194;-72
2023/08/02 09:25:26;;;;;;;2.40;2.30;;;18.90;99.90;;;;;;5051653;28;20202;-71
2023/08/02 09:27:53;;;;;;;2.40;2.30;;;19.00;99.90;;;;;;5053310;28;20158;-74
2023/08/02 09:30:31;;;;;;;2.43;2.23;;;19.20;99.90;;;;;;5052867;28;20625;-72
2023/08/02 09:33:08;;;;;;;2.20;2.10;;;19.30;99.90;;;;;;5054118;28;20250;-72
2023/08/02 09:35:54;;;;;;;3.03;2.83;;;19.50;99.90;;;;;;5054756;28;20198;-72
2023/08/02 09:38:20;;;;;;;2.40;2.30;;;19.70;99.90;;;;;;5052504;28;20219;-71
2023/08/02 09:40:48;;;;;;;3.30;2.60;;;19.80;99.90;;;;;;5034747;28;20230;-72
2023/08/02 09:43:15;;;;;;;2.20;2.10;;;19.90;99.90;;;;;;5034321;28;20187;-72
2023/08/02 09:45:41;;;;;;;2.73;2.53;;;20.20;99.90;;;;;;5034436;28;20176;-72
2023/08/02 09:48:07;;;;;;;2.60;2.40;;;20.40;99.90;;;;;;5034685;28;20258;-72
2023/08/02 09:50:33;;;;;;;2.40;2.20;;;20.50;99.90;;;;;;5021556;28;20295;-73
2023/08/02 09:53:14;;;;;;;2.30;2.20;;;20.70;99.90;;;;;;5031475;28;20234;-73
2023/08/02 09:55:44;;;;;;;2.30;2.10;;;20.80;99.90;;;;;;5054563;28;20171;-73
2023/08/02 09:58:12;;;;;;;2.30;2.10;;;20.70;99.90;;;;;;5042021;28;20183;-72
2023/08/02 10:00:39;;;;;;;2.10;2.00;;;20.60;99.90;;;;;;5034284;28;20217;-72
2023/08/02 10:03:06;;;;;;;2.10;2.00;;;20.50;99.90;;;;;;5043213;28;20179;-72
2023/08/02 10:05:33;;;;;;;2.20;2.00;;;20.30;99.90;;;;;;5052015;28;20178;-72
2023/08/02 10:07:59;;;;;;;3.00;2.00;;;20.10;99.90;;;;;;5053752;28;20183;-73
2023/08/02 10:10:31;;;;;;;2.07;1.97;;;20.00;99.90;;;;;;5053721;28;20207;-73
2023/08/02 10:13:12;;;;;;;3.20;2.00;;;19.80;99.90;;;;;;5053493;28;20183;-73
2023/08/02 10:15:40;;;;;;;2.10;2.00;;;19.70;99.90;;;;;;5035023;28;20263;-71
2023/08/02 10:18:06;;;;;;;2.23;2.13;;;19.70;99.90;;;;;;5033449;28;20597;-72
2023/08/02 10:20:33;;;;;;;2.53;2.07;;;19.80;99.90;;;;;;5034298;28;20657;-72
2023/08/02 10:23:03;;;;;;;2.03;1.93;;;19.90;99.90;;;;;;5033083;28;20183;-72
2023/08/02 10:25:32;;;;;;;2.10;2.00;;;20.00;99.90;;;;;;5033484;28;20202;-73
2023/08/02 10:27:59;;;;;;;2.40;2.30;;;20.20;99.90;;;;;;5033497;28;20661;-74
2023/08/02 10:30:26;;;;;;;2.70;2.50;;;20.30;99.90;;;;;;5043270;28;20235;-72
2023/08/02 10:33:14;;;;;;;2.30;2.10;;;20.50;99.90;;;;;;5032756;28;20544;-72
2023/08/02 10:36:02;;;;;;;2.17;2.07;;;20.70;99.90;;;;;;5033447;28;20250;-71
2023/08/02 10:38:37;;;;;;;2.33;2.20;;;20.90;99.90;;;;;;5032952;28;20575;-71
2023/08/02 10:41:07;;;;;;;2.33;2.13;;;20.90;99.90;;;;;;5033246;28;20257;-72
2023/08/02 10:43:33;;;;;;;2.78;2.67;;;21.00;99.90;;;;;;5032520;28;20179;-72
2023/08/02 10:46:19;;;;;;;2.30;2.20;;;21.10;99.90;;;;;;5032894;28;20198;-73
2023/08/02 10:48:45;;;;;;;2.40;2.30;;;21.30;99.90;;;;;;5033118;28;20171;-73
2023/08/02 10:51:32;;;;;;;3.10;2.42;;;21.70;99.90;;;;;;5033089;28;20321;-73
2023/08/02 10:54:22;;;;;;;2.50;2.30;;;22.10;99.90;;;;;;5032646;28;20206;-73
2023/08/02 10:56:58;;;;;;;2.08;1.98;;;22.50;99.90;;;;;;5032853;28;20190;-73
2023/08/02 10:59:24;;;;;;;2.03;1.92;;;23.00;99.90;;;;;;5032827;28;20187;-73
2023/08/02 11:02:01;;;;;;;2.15;1.83;;;23.30;99.90;;;;;;5031199;28;20267;-73
2023/08/02 11:04:28;;;;;;;1.92;1.73;;;23.30;99.90;;;;;;5040812;28;20179;-73
2023/08/02 11:06:54;;;;;;;1.90;1.80;;;23.00;99.90;;;;;;5044470;28;20180;-73
2023/08/02 11:09:32;;;;;;;1.95;1.85;;;22.60;99.90;;;;;;5032634;28;20202;-72
2023/08/02 11:12:14;;;;;;;1.90;1.80;;;22.30;99.90;;;;;;5034164;28;20249;-73
2023/08/02 11:14:44;;;;;;;1.83;1.73;;;22.20;99.90;;;;;;5051268;28;20170;-71
2023/08/02 11:17:11;;;;;;;2.00;1.90;;;22.00;99.90;;;;;;5051766;28;20179;-73
2023/08/02 11:19:37;;;;;;;2.53;2.33;;;21.80;99.90;;;;;;5052006;28;20240;-73
2023/08/02 11:22:03;;;;;;;2.25;2.05;;;21.60;99.90;;;;;;5048958;28;20181;-73
2023/08/02 11:24:40;;;;;;;2.17;2.08;;;21.60;99.90;;;;;;5032512;28;20597;-73
2023/08/02 11:27:05;;;;;;;2.20;2.08;;;21.80;99.90;;;;;;5030447;28;20170;-73
2023/08/02 11:29:31;;;;;;;2.35;2.17;;;22.10;99.90;;;;;;5032428;28;20238;-73
2023/08/02 11:32:02;;;;;;;1.90;1.80;;;22.50;99.90;;;;;;5032963;28;20208;-73
2023/08/02 11:34:28;;;;;;;1.98;1.88;;;22.90;99.90;;;;;;5052185;28;20183;-74
2023/08/02 11:36:55;;;;;;;2.05;1.95;;;23.40;99.90;;;;;;5052043;28;20582;-72
2023/08/02 11:39:20;;;;;;;1.60;1.55;;;23.80;99.90;;;;;;5051950;28;20191;-73
2023/08/02 11:42:02;;;;;;;1.70;1.60;;;24.10;99.90;;;;;;5051342;28;20355;-71
2023/08/02 11:44:27;;;;;;;1.70;1.60;;;24.30;99.90;;;;;;5012316;28;20179;-73
2023/08/02 11:46:54;;;;;;;3.38;1.80;;;24.40;99.90;;;;;;5012136;28;20226;-73
2023/08/02 11:49:20;;;;;;;1.90;1.80;;;24.40;99.90;;;;;;5011983;28;20618;-73
2023/08/02 11:51:46;;;;;;;2.30;2.00;;;24.30;99.90;;;;;;5028680;28;20293;-73
2023/08/02 11:54:13;;;;;;;1.83;1.73;;;24.10;99.90;;;;;;5051575;28;20250;-73
2023/08/02 11:56:39;;;;;;;1.90;1.80;;;23.80;99.90;;;;;;5051651;28;20171;-74
2023/08/02 11:59:08;;;;;;;2.30;2.10;;;23.50;99.90;;;;;;5051686;28;20192;-74
2023/08/02 12:01:34;;;;;;;2.10;2.00;;;23.40;99.90;;;;;;5044258;28;20168;-73
2023/08/02 12:04:03;;;;;;;2.40;2.20;;;23.40;99.90;;;;;;5038976;28;20186;-73
2023/08/02 12:06:50;;;;;;;2.03;1.92;;;23.40;99.90;;;;;;5031734;28;20179;-74
2023/08/02 12:09:17;;;;;;;2.20;2.10;;;23.40;99.90;;;;;;5030339;28;20286;-73
2023/08/02 12:11:44;;;;;;;3.65;2.20;;;23.60;99.90;;;;;;5031349;28;20218;-73
2023/08/02 12:14:09;;;;;;;2.33;2.08;;;23.70;99.90;;;;;;5031532;28;20178;-73
2023/08/02 12:16:43;;;;;;;2.10;2.00;;;23.90;99.90;;;;;;5031172;28;20167;-73
2023/08/02 12:19:09;;;;;;;2.10;2.00;;;24.00;99.90;;;;;;5030161;28;20174;-73
2023/08/02 12:21:35;;;;;;;1.90;1.80;;;24.30;99.90;;;;;;5030109;28;20551;-73
2023/08/02 12:24:12;;;;;;;2.03;1.92;;;24.60;99.90;;;;;;5031182;28;20190;-73
2023/08/02 12:26:39;;;;;;;2.13;1.98;;;24.90;99.90;;;;;;5031431;28;20233;-73
2023/08/02 12:29:05;;;;;;;1.70;1.60;;;25.10;99.90;;;;;;5031468;28;20179;-71
2023/08/02 12:31:44;;;;;;;2.03;1.92;;;25.20;99.90;;;;;;5029966;28;20709;-71
2023/08/02 12:34:10;;;;;;;1.83;1.73;;;25.20;99.90;;;;;;5031430;28;20175;-70
2023/08/02 12:36:36;;;;;;;3.97;2.28;;;24.90;99.90;;;;;;5031430;28;20199;-70
2023/08/02 12:39:03;;;;;;;2.22;2.13;;;24.20;99.90;;;;;;5031179;28;20172;-71
2023/08/02 12:41:28;;;;;;;2.65;2.55;;;22.30;99.90;;;;;;5031168;28;20181;-73
2023/08/02 12:43:54;;;;;;;3.33;2.65;;;21.10;99.90;;;;;;5031020;28;20198;-71
2023/08/02 12:46:20;;;;;;;3.63;2.67;;;20.40;99.90;;;;;;5031281;28;20611;-72
2023/08/02 12:48:47;;;;;;;2.70;2.50;;;19.90;99.90;;;;;;5031203;28;20171;-71